createdAt,value
2023-02-08T00:02:21.851Z,-7.60
2023-02-08T00:05:24.654Z,-7.58
2023-02-08T00:08:27.247Z,-7.53
2023-02-08T00:11:30.085Z,-7.40
2023-02-08T00:14:32.628Z,-7.32
2023-02-08T00:17:35.189Z,-7.45
2023-02-08T00:20:42.725Z,-7.42
2023-02-08T00:23:46.586Z,-7.25
2023-02-08T00:26:49.104Z,-7.15
2023-02-08T00:29:51.688Z,-7.56
2023-02-08T00:32:54.431Z,-7.68
2023-02-08T00:36:05.624Z,-7.81
2023-02-08T00:39:08.257Z,-7.69
2023-02-08T00:42:10.997Z,-7.71
2023-02-08T00:45:15.227Z,-7.86
2023-02-08T00:48:19.907Z,-7.89
2023-02-08T00:51:22.814Z,-7.92
2023-02-08T00:54:25.587Z,-7.96
2023-02-08T00:57:28.101Z,-7.58
2023-02-08T01:00:30.749Z,-7.38
2023-02-08T01:03:34.856Z,-7.35
2023-02-08T01:06:39.996Z,-7.30
2023-02-08T01:09:42.689Z,-7.48
2023-02-08T01:12:45.320Z,-7.39
2023-02-08T01:15:48.026Z,-7.33
2023-02-08T01:18:52.486Z,-7.23
2023-02-08T01:21:55.231Z,-7.18
2023-02-08T01:25:01.358Z,-7.45
2023-02-08T01:28:05.586Z,-7.81
2023-02-08T01:31:10.060Z,-7.69
2023-02-08T01:34:15.427Z,-7.44
2023-02-08T01:37:19.070Z,-7.40
2023-02-08T01:40:23.098Z,-7.33
2023-02-08T01:43:28.266Z,-7.27
2023-02-08T01:46:32.146Z,-7.40
2023-02-08T01:49:36.732Z,-7.65
2023-02-08T01:52:39.380Z,-7.68
2023-02-08T01:55:47.211Z,-7.74
2023-02-08T01:58:53.540Z,-7.70
2023-02-08T02:01:58.778Z,-7.80
2023-02-08T02:05:03.355Z,-7.86
2023-02-08T02:08:07.076Z,-7.97
2023-02-08T02:11:09.631Z,-7.99
2023-02-08T02:14:13.083Z,-7.94
2023-02-08T02:17:17.719Z,-7.92
2023-02-08T02:20:33.355Z,-7.73
2023-02-08T02:23:53.002Z,-7.61
2023-02-08T02:27:14.480Z,-7.68
2023-02-08T02:30:47.686Z,-7.63
2023-02-08T02:34:05.752Z,-7.74
2023-02-08T02:37:08.241Z,-7.73
2023-02-08T02:40:31.041Z,-7.73
2023-02-08T02:43:49.049Z,-8.04
2023-02-08T02:47:01.429Z,-8.11
2023-02-08T02:50:25.422Z,-8.00
2023-02-08T02:53:36.100Z,-7.81
2023-02-08T02:56:45.182Z,-7.75
2023-02-08T02:59:47.952Z,-7.96
2023-02-08T03:02:50.597Z,-7.91
2023-02-08T03:05:57.387Z,-7.87
2023-02-08T03:09:41.886Z,-7.67
2023-02-08T03:12:49.844Z,-7.66
2023-02-08T03:16:13.995Z,-7.99
2023-02-08T03:19:23.332Z,-8.18
2023-02-08T03:22:44.498Z,-8.19
2023-02-08T03:25:51.170Z,-8.31
2023-02-08T03:29:19.653Z,-8.38
2023-02-08T03:32:25.619Z,-8.26
2023-02-08T03:35:37.024Z,-8.08
2023-02-08T03:38:42.363Z,-8.02
2023-02-08T03:41:46.915Z,-8.11
2023-02-08T03:44:57.531Z,-8.11
2023-02-08T03:48:04.261Z,-8.23
2023-02-08T03:51:07.690Z,-8.22
2023-02-08T03:54:21.090Z,-8.00
2023-02-08T03:57:30.002Z,-8.13
2023-02-08T04:00:36.700Z,-8.22
2023-02-08T04:03:39.663Z,-8.11
2023-02-08T04:06:42.613Z,-8.16
2023-02-08T04:09:45.653Z,-8.26
2023-02-08T04:12:49.212Z,-8.32
2023-02-08T04:15:51.722Z,-8.48
2023-02-08T04:18:54.300Z,-8.65
2023-02-08T04:21:56.912Z,-8.55
2023-02-08T04:25:00.149Z,-8.41
2023-02-08T04:28:02.727Z,-8.29
2023-02-08T04:31:05.514Z,-8.53
2023-02-08T04:34:08.256Z,-8.65
2023-02-08T04:37:11.341Z,-8.74
2023-02-08T04:40:13.923Z,-9.03
2023-02-08T04:43:16.675Z,-9.12
2023-02-08T04:46:19.413Z,-9.04
2023-02-08T04:49:22.130Z,-8.93
2023-02-08T04:52:24.731Z,-8.81
2023-02-08T04:55:27.412Z,-8.73
2023-02-08T04:58:29.972Z,-8.73
2023-02-08T05:01:32.774Z,-8.65
2023-02-08T05:04:35.848Z,-8.60
2023-02-08T05:07:38.765Z,-8.55
2023-02-08T05:10:45.531Z,-8.78
2023-02-08T05:13:48.633Z,-8.89
2023-02-08T05:16:51.286Z,-9.00
2023-02-08T05:19:54.023Z,-9.00
2023-02-08T05:22:56.576Z,-9.01
2023-02-08T05:25:59.731Z,-9.08
2023-02-08T05:29:02.338Z,-9.01
2023-02-08T05:32:05.046Z,-9.05
2023-02-08T05:35:07.854Z,-8.96
2023-02-08T05:38:10.418Z,-9.14
2023-02-08T05:41:12.967Z,-9.20
2023-02-08T05:44:15.704Z,-9.07
2023-02-08T05:47:18.501Z,-8.78
2023-02-08T05:50:21.200Z,-8.53
2023-02-08T05:53:27.306Z,-8.38
2023-02-08T05:56:30.277Z,-8.33
2023-02-08T05:59:32.842Z,-8.51
2023-02-08T06:02:35.705Z,-8.41
2023-02-08T06:05:39.923Z,-8.41
2023-02-08T06:08:42.665Z,-8.51
2023-02-08T06:11:45.277Z,-8.67
2023-02-08T06:14:47.854Z,-8.66
2023-02-08T06:17:51.082Z,-8.40
2023-02-08T06:20:54.687Z,-8.16
2023-02-08T06:23:57.637Z,-7.98
2023-02-08T06:27:00.222Z,-7.82
2023-02-08T06:30:03.363Z,-7.78
2023-02-08T06:33:06.241Z,-8.04
2023-02-08T06:36:09.374Z,-7.94
2023-02-08T06:39:13.111Z,-7.72
2023-02-08T06:42:15.748Z,-7.35
2023-02-08T06:45:18.972Z,-7.21
2023-02-08T06:48:21.566Z,-7.30
2023-02-08T06:51:24.484Z,-7.32
2023-02-08T06:54:27.088Z,-7.48
2023-02-08T06:57:32.426Z,-7.14
2023-02-08T07:00:35.100Z,-6.95
2023-02-08T07:03:37.633Z,-6.82
2023-02-08T07:06:40.368Z,-6.72
2023-02-08T07:09:43.684Z,-6.72
2023-02-08T07:12:48.423Z,-6.75
2023-02-08T07:15:51.571Z,-6.85
2023-02-08T07:18:54.285Z,-7.07
2023-02-08T07:21:57.511Z,-7.06
2023-02-08T07:25:00.496Z,-6.70
2023-02-08T07:28:03.225Z,-6.40
2023-02-08T07:31:10.982Z,-6.10
2023-02-08T07:34:13.582Z,-5.86
2023-02-08T07:37:16.943Z,-5.53
2023-02-08T07:40:19.610Z,-5.14
2023-02-08T07:43:22.132Z,-5.26
2023-02-08T07:46:32.816Z,-5.43
2023-02-08T07:49:35.782Z,-5.43
2023-02-08T07:52:38.998Z,-5.28
2023-02-08T07:55:41.616Z,-4.79
2023-02-08T07:58:44.160Z,-3.90
2023-02-08T08:01:46.888Z,-3.25
2023-02-08T08:04:49.793Z,-2.87
2023-02-08T08:07:52.349Z,-2.79
2023-02-08T08:10:55.013Z,-2.72
2023-02-08T08:13:57.579Z,-2.19
2023-02-08T08:17:00.456Z,-1.93
2023-02-08T08:20:03.349Z,-1.95
2023-02-08T08:23:05.981Z,-1.77
2023-02-08T08:26:15.470Z,-1.61
2023-02-08T08:29:18.281Z,-1.64
2023-02-08T08:32:20.942Z,-1.98
2023-02-08T08:35:23.477Z,-1.75
2023-02-08T08:38:26.106Z,-1.34
2023-02-08T08:41:28.842Z,-1.13
2023-02-08T08:44:31.909Z,-1.24
2023-02-08T08:47:34.725Z,-1.23
2023-02-08T08:50:37.463Z,-0.92
2023-02-08T08:53:40.176Z,-0.73
2023-02-08T08:56:43.135Z,-0.63
2023-02-08T08:59:45.760Z,-0.61
2023-02-08T09:02:48.293Z,-0.32
2023-02-08T09:05:51.785Z,-0.15
2023-02-08T09:08:54.346Z,-0.07
2023-02-08T09:11:57.041Z,0.10
2023-02-08T09:14:59.877Z,0.33
2023-02-08T09:18:02.716Z,0.48
2023-02-08T09:21:14.381Z,0.60
2023-02-08T09:24:17.262Z,0.74
2023-02-08T09:27:19.960Z,0.85
2023-02-08T09:30:22.643Z,0.84
2023-02-08T09:33:25.283Z,0.86
2023-02-08T09:36:33.056Z,0.81
2023-02-08T09:39:36.022Z,0.57
2023-02-08T09:42:45.016Z,0.45
2023-02-08T09:45:59.893Z,0.14
2023-02-08T09:49:05.732Z,-0.19
2023-02-08T09:52:14.034Z,-0.15
2023-02-08T09:55:36.475Z,-0.15
2023-02-08T09:58:45.516Z,-0.10
2023-02-08T10:01:49.889Z,0.09
2023-02-08T10:05:00.204Z,0.13
2023-02-08T10:08:03.085Z,-0.10
2023-02-08T10:11:27.655Z,0.17
2023-02-08T10:14:51.573Z,0.22
2023-02-08T10:18:24.687Z,-0.02
2023-02-08T10:21:37.900Z,-0.07
2023-02-08T10:25:18.355Z,0.01
2023-02-08T10:28:58.510Z,0.14
2023-02-08T10:32:35.547Z,0.19
2023-02-08T10:35:41.755Z,0.39
2023-02-08T10:38:46.982Z,0.41
2023-02-08T10:41:51.611Z,0.49
2023-02-08T10:45:24.355Z,0.51
2023-02-08T10:48:54.713Z,0.80
2023-02-08T10:51:57.348Z,0.98
2023-02-08T10:55:00.203Z,1.06
2023-02-08T10:58:05.382Z,1.05
2023-02-08T11:01:08.989Z,1.15
2023-02-08T11:04:13.416Z,1.42
2023-02-08T11:07:21.620Z,1.34
2023-02-08T11:10:25.911Z,1.62
2023-02-08T11:13:51.710Z,1.71
2023-02-08T11:16:56.496Z,1.79
2023-02-08T11:20:00.257Z,1.83
2023-02-08T11:23:18.240Z,1.85
2023-02-08T11:26:23.811Z,2.17
2023-02-08T11:29:29.937Z,2.25
2023-02-08T11:32:33.382Z,2.43
2023-02-08T11:35:36.364Z,2.40
2023-02-08T11:38:42.140Z,2.52
2023-02-08T11:41:46.801Z,2.60
2023-02-08T11:44:49.901Z,2.90
2023-02-08T11:47:52.990Z,2.91
2023-02-08T11:51:00.999Z,2.86
2023-02-08T11:54:04.885Z,3.23
2023-02-08T11:57:19.561Z,3.39
2023-02-08T12:00:31.264Z,3.61
2023-02-08T12:03:38.469Z,3.33
2023-02-08T12:06:50.193Z,3.38
2023-02-08T12:10:13.858Z,3.57
2023-02-08T12:13:25.801Z,3.63
2023-02-08T12:16:51.618Z,3.71
2023-02-08T12:20:16.179Z,3.85
2023-02-08T12:23:43.401Z,3.95
2023-02-08T12:26:52.141Z,3.96
2023-02-08T12:30:14.952Z,3.87
2023-02-08T12:33:39.287Z,3.90
2023-02-08T12:37:26.585Z,3.91
2023-02-08T12:40:56.133Z,3.87
2023-02-08T12:44:10.869Z,4.47
2023-02-08T12:48:05.075Z,4.47
2023-02-08T12:51:29.842Z,4.29
2023-02-08T12:54:36.968Z,4.26
2023-02-08T12:57:42.633Z,4.15
2023-02-08T13:00:45.754Z,4.36
2023-02-08T13:03:54.547Z,4.62
2023-02-08T13:07:00.091Z,4.80
2023-02-08T13:10:12.679Z,4.71
2023-02-08T13:13:24.407Z,4.80
2023-02-08T13:16:31.579Z,4.66
2023-02-08T13:19:59.643Z,4.81
2023-02-08T13:23:24.291Z,4.22
2023-02-08T13:26:31.746Z,4.66
2023-02-08T13:29:36.685Z,4.66
2023-02-08T13:32:44.212Z,4.69
2023-02-08T13:35:52.085Z,4.63
2023-02-08T13:38:55.560Z,4.53
2023-02-08T13:41:58.364Z,4.27
2023-02-08T13:45:01.807Z,4.32
2023-02-08T13:48:07.597Z,4.60
2023-02-08T13:51:29.165Z,4.43
2023-02-08T13:54:31.954Z,4.54
2023-02-08T13:58:15.644Z,4.59
2023-02-08T14:01:23.457Z,4.68
2023-02-08T14:04:37.264Z,4.31
2023-02-08T14:07:43.942Z,4.14
2023-02-08T14:11:09.817Z,4.34
2023-02-08T14:14:28.782Z,4.22
2023-02-08T14:17:31.556Z,4.32
2023-02-08T14:20:40.349Z,4.08
2023-02-08T14:23:43.122Z,3.91
2023-02-08T14:26:46.473Z,3.84
2023-02-08T14:30:18.169Z,3.86
2023-02-08T14:33:36.305Z,3.72
2023-02-08T14:36:39.461Z,3.61
2023-02-08T14:39:42.449Z,3.42
2023-02-08T14:43:01.932Z,3.28
2023-02-08T14:46:42.503Z,3.26
2023-02-08T14:49:45.802Z,2.98
2023-02-08T14:53:23.999Z,2.84
2023-02-08T14:56:30.241Z,2.85
2023-02-08T14:59:35.026Z,2.51
2023-02-08T15:02:41.643Z,2.27
2023-02-08T15:06:09.297Z,2.10
2023-02-08T15:09:18.243Z,1.87
2023-02-08T15:12:30.945Z,1.62
2023-02-08T15:15:37.120Z,1.28
2023-02-08T15:18:39.911Z,1.16
2023-02-08T15:21:42.584Z,1.07
2023-02-08T15:24:54.021Z,0.90
2023-02-08T15:28:00.203Z,0.82
2023-02-08T15:31:06.334Z,0.67
2023-02-08T15:34:11.185Z,0.61
2023-02-08T15:37:18.176Z,0.45
2023-02-08T15:40:35.837Z,0.33
2023-02-08T15:43:40.398Z,0.36
2023-02-08T15:46:44.169Z,0.10
2023-02-08T15:49:50.958Z,0.02
2023-02-08T15:53:01.913Z,-0.16
2023-02-08T15:56:05.378Z,-0.35
2023-02-08T15:59:09.145Z,-0.54
2023-02-08T16:02:34.594Z,-0.88
2023-02-08T16:05:38.494Z,-1.03
2023-02-08T16:08:44.201Z,-1.29
2023-02-08T16:11:50.267Z,-1.20
2023-02-08T16:14:56.885Z,-1.10
2023-02-08T16:17:59.734Z,-1.06
2023-02-08T16:21:04.909Z,-1.22
2023-02-08T16:24:21.784Z,-1.52
2023-02-08T16:27:30.175Z,-1.60
2023-02-08T16:30:33.454Z,-1.71
2023-02-08T16:33:37.575Z,-1.94
2023-02-08T16:36:45.826Z,-2.13
2023-02-08T16:39:57.114Z,-2.27
2023-02-08T16:43:20.122Z,-2.42
2023-02-08T16:46:24.793Z,-2.40
2023-02-08T16:49:30.225Z,-2.63
2023-02-08T16:52:33.281Z,-2.73
2023-02-08T16:55:37.243Z,-2.56
2023-02-08T16:58:40.407Z,-2.57
2023-02-08T17:01:48.618Z,-2.64
2023-02-08T17:04:54.882Z,-2.76
2023-02-08T17:07:58.657Z,-2.77
2023-02-08T17:11:01.606Z,-2.90
2023-02-08T17:14:07.890Z,-2.96
2023-02-08T17:17:10.769Z,-2.93
2023-02-08T17:20:21.188Z,-2.79
2023-02-08T17:23:23.949Z,-2.83
2023-02-08T17:26:34.329Z,-2.91
2023-02-08T17:29:37.389Z,-2.84
2023-02-08T17:32:40.524Z,-3.18
2023-02-08T17:35:44.350Z,-3.29
2023-02-08T17:38:47.637Z,-3.40
2023-02-08T17:41:50.386Z,-3.41
2023-02-08T17:44:53.041Z,-3.50
2023-02-08T17:47:56.669Z,-3.40
2023-02-08T17:50:59.544Z,-3.28
2023-02-08T17:54:06.806Z,-3.34
2023-02-08T17:57:11.420Z,-3.64
2023-02-08T18:00:18.863Z,-3.77
2023-02-08T18:03:21.656Z,-3.77
2023-02-08T18:06:25.338Z,-3.80
2023-02-08T18:09:28.711Z,-3.95
2023-02-08T18:12:31.705Z,-4.01
2023-02-08T18:15:34.692Z,-4.00
2023-02-08T18:18:38.001Z,-3.63
2023-02-08T18:21:41.051Z,-3.53
2023-02-08T18:24:43.992Z,-4.07
2023-02-08T18:27:46.939Z,-4.05
2023-02-08T18:30:50.527Z,-4.07
2023-02-08T18:33:54.656Z,-4.10
2023-02-08T18:36:57.556Z,-4.07
2023-02-08T18:40:00.963Z,-4.19
2023-02-08T18:43:03.842Z,-4.21
2023-02-08T18:46:12.401Z,-4.36
2023-02-08T18:49:17.047Z,-4.32
2023-02-08T18:52:19.985Z,-4.03
2023-02-08T18:55:24.610Z,-3.88
2023-02-08T18:58:28.029Z,-4.03
2023-02-08T19:01:31.080Z,-4.25
2023-02-08T19:04:40.667Z,-4.25
2023-02-08T19:07:43.740Z,-4.26
2023-02-08T19:10:46.540Z,-4.28
2023-02-08T19:13:50.242Z,-4.57
2023-02-08T19:16:52.961Z,-4.70
2023-02-08T19:19:56.328Z,-4.73
2023-02-08T19:22:59.717Z,-4.79
2023-02-08T19:26:08.450Z,-5.04
2023-02-08T19:29:15.143Z,-5.06
2023-02-08T19:32:18.098Z,-4.98
2023-02-08T19:35:22.180Z,-4.90
2023-02-08T19:38:25.168Z,-4.95
2023-02-08T19:41:32.537Z,-4.90
2023-02-08T19:44:35.420Z,-4.85
2023-02-08T19:47:50.725Z,-4.92
2023-02-08T19:50:59.144Z,-4.96
2023-02-08T19:54:07.096Z,-5.00
2023-02-08T19:57:12.388Z,-5.13
2023-02-08T20:00:23.514Z,-5.23
2023-02-08T20:03:27.121Z,-5.21
2023-02-08T20:06:33.147Z,-5.27
2023-02-08T20:09:36.402Z,-5.14
2023-02-08T20:12:39.491Z,-5.09
2023-02-08T20:15:43.961Z,-4.83
2023-02-08T20:18:47.592Z,-4.80
2023-02-08T20:21:51.718Z,-4.87
2023-02-08T20:24:55.251Z,-4.80
2023-02-08T20:27:58.301Z,-4.95
2023-02-08T20:31:02.037Z,-5.17
2023-02-08T20:34:07.814Z,-5.28
2023-02-08T20:37:10.856Z,-5.39
2023-02-08T20:40:14.975Z,-5.36
2023-02-08T20:43:20.717Z,-5.39
2023-02-08T20:46:32.243Z,-5.49
2023-02-08T20:49:35.347Z,-5.51
2023-02-08T20:52:38.028Z,-5.35
2023-02-08T20:55:41.801Z,-5.36
2023-02-08T20:58:49.370Z,-5.37
2023-02-08T21:01:52.719Z,-5.30
2023-02-08T21:04:55.633Z,-5.35
2023-02-08T21:07:58.675Z,-5.39
2023-02-08T21:11:02.624Z,-5.48
2023-02-08T21:14:06.606Z,-5.50
2023-02-08T21:17:10.982Z,-5.78
2023-02-08T21:20:18.053Z,-5.99
2023-02-08T21:23:20.837Z,-5.94
2023-02-08T21:26:25.066Z,-5.99
2023-02-08T21:29:29.505Z,-6.00
2023-02-08T21:32:32.225Z,-5.84
2023-02-08T21:35:38.651Z,-5.75
2023-02-08T21:38:42.018Z,-5.69
2023-02-08T21:41:44.635Z,-5.61
2023-02-08T21:44:47.280Z,-5.65
2023-02-08T21:47:49.899Z,-5.62
2023-02-08T21:51:11.062Z,-5.60
2023-02-08T21:54:35.295Z,-5.60
2023-02-08T21:57:41.276Z,-5.77
2023-02-08T22:00:44.146Z,-5.74
2023-02-08T22:03:46.939Z,-5.89
2023-02-08T22:06:49.622Z,-5.76
2023-02-08T22:09:53.036Z,-5.68
2023-02-08T22:12:56.105Z,-5.55
2023-02-08T22:15:59.658Z,-5.38
2023-02-08T22:19:02.550Z,-5.35
2023-02-08T22:22:05.185Z,-5.44
2023-02-08T22:25:08.108Z,-5.49
2023-02-08T22:28:10.809Z,-5.70
2023-02-08T22:31:15.412Z,-5.81
2023-02-08T22:34:18.162Z,-5.93
2023-02-08T22:37:20.806Z,-6.04
2023-02-08T22:40:23.405Z,-6.08
2023-02-08T22:43:25.977Z,-6.17
2023-02-08T22:46:28.722Z,-6.40
2023-02-08T22:49:31.403Z,-6.59
2023-02-08T22:52:34.976Z,-6.69
2023-02-08T22:55:37.608Z,-6.59
2023-02-08T22:58:40.421Z,-6.51
2023-02-08T23:01:58.492Z,-6.38
2023-02-08T23:05:01.201Z,-6.40
2023-02-08T23:08:03.937Z,-6.31
2023-02-08T23:11:07.541Z,-6.40
2023-02-08T23:14:10.560Z,-6.47
2023-02-08T23:17:13.221Z,-6.30
2023-02-08T23:20:15.903Z,-6.42
2023-02-08T23:23:19.258Z,-6.92
2023-02-08T23:26:22.484Z,-6.85
2023-02-08T23:29:25.482Z,-6.80
2023-02-08T23:32:28.110Z,-7.03
2023-02-08T23:35:32.041Z,-6.77
2023-02-08T23:38:35.533Z,-6.70
2023-02-08T23:41:38.392Z,-6.69
2023-02-08T23:44:41.098Z,-6.87
2023-02-08T23:47:43.807Z,-6.89
2023-02-08T23:50:46.718Z,-7.16
2023-02-08T23:53:50.475Z,-7.08
2023-02-08T23:56:53.314Z,-6.98
2023-02-08T23:59:55.864Z,-6.89
